METAR Data
IDs: Format: Raw Decoded Include TAF

Data at: 2313 UTC 25 Oct 2021

K66R 252255Z AUTO 00000KT 10SM CLR 30/22 A2992 RMK AO2 T02950224
K66R 252235Z AUTO 00000KT 10SM CLR 30/23 A2991 RMK AO2 T02980225
K66R 252215Z AUTO 15003KT 10SM CLR 29/22 A2992 RMK AO2 T02910224
K66R 252155Z AUTO 00000KT 10SM CLR 29/23 A2992 RMK AO2 T02930225
K66R 252135Z AUTO 13003KT 10SM CLR 31/22 A2992 RMK AO2 T03050218
K66R 252115Z AUTO 00000KT 10SM CLR 30/23 A2992 RMK AO2 T02990225
K66R 252055Z AUTO 00000KT 10SM SCT031 29/23 A2992 RMK AO2 T02890229
K66R 252035Z AUTO 00000KT 10SM BKN031 29/23 A2993 RMK AO2 T02900229
K66R 252015Z AUTO 08003KT 10SM BKN029 OVC034 30/23 A2993 RMK AO2 T02990232
K66R 251955Z AUTO 00000KT 10SM BKN027 30/23 A2993 RMK AO2 T02970233
K66R 251935Z AUTO 00000KT 10SM BKN025 30/23 A2994 RMK AO2 T03010232
K66R 251915Z AUTO 19004KT 10SM SCT023 29/23 A2995 RMK AO2 T02890230
K66R 251855Z AUTO 00000KT 10SM BKN021 29/23 A2996 RMK AO2 T02860227
K66R 251835Z AUTO 19003KT 10SM SCT019 28/23 A2997 RMK AO2 T02830230
K66R 251815Z AUTO 22003KT 10SM SCT019 27/23 A2998 RMK AO2 T02740228
K66R 251755Z AUTO 18003KT 10SM BKN019 28/23 A2999 RMK AO2 T02780227 10281 20238
K66R 251735Z AUTO 13005KT 10SM OVC019 28/23 A3000 RMK AO2 T02790228
K66R 251715Z AUTO 00000KT 10SM OVC017 27/23 A3000 RMK AO2 T02660225
K66R 251655Z AUTO 00000KT 10SM OVC015 26/22 A3000 RMK AO2 T02610223
K66R 251635Z AUTO 13003KT 10SM OVC015 26/23 A3000 RMK AO2 T02600225
K66R 251615Z AUTO 00000KT 10SM OVC015 26/23 A3000 RMK AO2 T02590227
K66R 251555Z AUTO 22003KT 10SM OVC013 26/22 A3000 RMK AO2 T02550224
K66R 251535Z AUTO 00000KT 10SM OVC013 25/22 A3000 RMK AO2 T02520223
K66R 251515Z AUTO 00000KT 10SM OVC013 25/22 A3000 RMK AO2 T02520224
K66R 251455Z AUTO 00000KT 10SM OVC013 25/22 A3000 RMK AO2 T02500222
K66R 251435Z AUTO 00000KT 10SM OVC013 25/23 A3000 RMK AO2 T02480226
K66R 251415Z AUTO 00000KT 10SM OVC013 25/23 A2999 RMK AO2 T02460231
K66R 251355Z AUTO 23003KT 10SM OVC013 24/23 A2999 RMK AO2 T02430232
K66R 251335Z AUTO 00000KT 10SM OVC011 24/23 A2998 RMK AO2 T02410231
K66R 251315Z AUTO 00000KT 10SM OVC011 24/23 A2997 RMK AO2 T02390232
K66R 251255Z AUTO 00000KT 10SM OVC009 24/23 A2996 RMK AO2 T02400232
K66R 251235Z AUTO 00000KT 10SM OVC009 24/23 A2995 RMK AO2 T02400232
K66R 251215Z AUTO 00000KT 10SM OVC011 24/23 A2994 RMK AO2 T02390232
K66R 251155Z AUTO 00000KT 10SM OVC011 24/23 A2994 RMK AO2 T02370233 10240 20231
K66R 251135Z AUTO 00000KT 10SM OVC009 24/24 A2993 RMK AO2 T02380235
K66R 251115Z AUTO 00000KT 10SM OVC009 24/24 A2992 RMK AO2 T02390235
K66R 251055Z AUTO 00000KT 10SM OVC007 24/24 A2992 RMK AO2 T02380235
K66R 251035Z AUTO 23004KT 10SM OVC005 24/24 A2992 RMK AO2 T02380236
K66R 251015Z AUTO 00000KT 10SM OVC005 24/24 A2991 RMK AO2 T02390236
K66R 250955Z AUTO 23003KT 10SM OVC005 24/24 A2992 RMK AO2 T02380237
K66R 250935Z AUTO 21003KT 10SM OVC005 24/24 A2992 RMK AO2 T02360235
K66R 250915Z AUTO 22004KT 10SM OVC003 24/24 A2992 RMK AO2 T02370237
K66R 250855Z AUTO 22004KT 1SM BR OVC003 24/24 A2992 RMK AO2 T02380238
K66R 250835Z AUTO 22005KT 3/4SM BR OVC003 24/24 A2992 RMK AO2 T02380237
K66R 250815Z AUTO 20004KT 1 1/4SM BR OVC003 24/24 A2992 RMK AO2 T02370237
K66R 250755Z AUTO 20003KT 1 1/4SM BR OVC003 24/24 A2992 RMK AO2 T02370237
K66R 250735Z AUTO 00000KT 3/4SM BR OVC003 24/24 A2992 RMK AO2 T02350235
K66R 250715Z AUTO 00000KT 1/2SM FG OVC003 23/23 A2992 RMK AO2 T02320231
K66R 250655Z AUTO 21003KT 1/2SM FG OVC003 23/23 A2992 RMK AO2 T02310230
K66R 250635Z AUTO 20003KT 3/4SM BR OVC003 23/23 A2991 RMK AO2 T02330232
K66R 250615Z AUTO 19003KT 5SM BR BKN003 23/23 A2991 RMK AO2 T02320231
K66R 250555Z AUTO 18003KT 10SM SCT003 23/23 A2991 RMK AO2 T02310230 10270 20231 403100186
K66R 250535Z AUTO 18003KT 10SM CLR 23/23 A2991 RMK AO2 T02310230
K66R 250515Z AUTO 17003KT 10SM CLR 23/23 A2990 RMK AO2 T02320230
K66R 250455Z AUTO 18004KT 10SM CLR 24/23 A2990 RMK AO2 T02350231
K66R 250435Z AUTO 19003KT 10SM CLR 24/23 A2990 RMK AO2 T02360232
K66R 250415Z AUTO 18004KT 10SM CLR 24/23 A2990 RMK AO2 T02370231
K66R 250355Z AUTO 18005KT 10SM CLR 24/23 A2990 RMK AO2 T02370230
K66R 250335Z AUTO 16004KT 10SM CLR 23/23 A2989 RMK AO2 T02330227
K66R 250315Z AUTO 16003KT 10SM CLR 23/23 A2990 RMK AO2 T02340227
K66R 250255Z AUTO 00000KT 10SM CLR 24/23 A2990 RMK AO2 T02400230
K66R 250235Z AUTO 00000KT 10SM CLR 24/23 A2988 RMK AO2 T02420230
K66R 250215Z AUTO 00000KT 10SM CLR 24/23 A2987 RMK AO2 T02440230
K66R 250155Z AUTO 00000KT 10SM CLR 25/23 A2986 RMK AO2 T02470231
K66R 250135Z AUTO 00000KT 10SM CLR 25/23 A2985 RMK AO2 T02500231
K66R 250115Z AUTO 00000KT 10SM CLR 25/23 A2985 RMK AO2 T02540232
K66R 250055Z AUTO 17003KT 10SM CLR 26/23 A2984 RMK AO2 T02560231
K66R 250035Z AUTO 17003KT 10SM CLR 26/23 A2983 RMK AO2 T02590230
K66R 250015Z AUTO 18003KT 10SM CLR 27/23 A2983 RMK AO2 T02650226
K66R 242355Z AUTO 17003KT 10SM CLR 27/22 A2983 RMK AO2 T02710222 10310 20271
K66R 242335Z AUTO 17003KT 10SM CLR 28/22 A2981 RMK AO2 T02800220
K66R 242315Z AUTO 17004KT 10SM CLR 29/22 A2981 RMK AO2 T02900219
K66R 242255Z AUTO 17004KT 10SM CLR 30/22 A2981 RMK AO2 T02960217
K66R 242235Z AUTO 18005KT 10SM CLR 30/22 A2981 RMK AO2 T03000215
K66R 242215Z AUTO 18003KT 10SM CLR 30/22 A2982 RMK AO2 T02990218
K66R 242155Z AUTO 18005KT 10SM SCT041 SCT050 30/22 A2982 RMK AO2 T03040216
K66R 242135Z AUTO 16006KT 10SM SCT041 BKN050 31/22 A2982 RMK AO2 T03050217
K66R 242115Z AUTO 21004KT 10SM SCT039 SCT047 SCT065 31/22 A2982 RMK AO2 T03050217
K66R 242055Z AUTO 20005KT 10SM SCT039 SCT050 31/22 A2982 RMK AO2 T03070215
K66R 242035Z AUTO 14004KT 10SM SCT041 SCT050 30/22 A2982 RMK AO2 T03010220
K66R 242015Z AUTO 20003KT 10SM CLR 30/22 A2982 RMK AO2 T02980220
K66R 241955Z AUTO 19005KT 10SM SCT034 SCT050 30/22 A2983 RMK AO2 T02980221
K66R 241935Z AUTO 18004KT 10SM SCT034 BKN040 BKN050 29/21 A2984 RMK AO2 T02920213
K66R 241915Z AUTO 00000KT 10SM SCT034 SCT042 BKN050 29/22 A2986 RMK AO2 T02860216
K66R 241855Z AUTO 18004KT 10SM SCT038 BKN060 29/22 A2986 RMK AO2 T02940220
K66R 241835Z AUTO 17005KT 10SM SCT027 SCT038 BKN050 29/22 A2986 RMK AO2 T02890222
K66R 241815Z AUTO 16003KT 10SM CLR 29/22 A2987 RMK AO2 T02900222
K66R 241755Z AUTO 00000KT 10SM CLR 29/22 A2987 RMK AO2 T02890215 10289 20198
K66R 241735Z AUTO 16005KT 10SM SCT024 SCT031 SCT040 29/22 A2988 RMK AO2 T02850223
K66R 241715Z AUTO 19003KT 10SM SCT031 SCT040 28/22 A2989 RMK AO2 T02750220
K66R 241655Z AUTO 16004KT 10SM SCT017 SCT022 SCT037 27/22 A2990 RMK AO2 T02710224
K66R 241635Z AUTO 17004KT 10SM SCT013 BKN017 BKN022 28/23 A2990 RMK AO2 T02750232
K66R 241615Z AUTO 17005KT 10SM BKN013 BKN020 OVC026 27/23 A2991 RMK AO2 T02650233
K66R 241555Z AUTO 16003KT 10SM BKN010 BKN014 OVC032 25/23 A2991 RMK AO2 T02540233
K66R 241535Z AUTO 17003KT 10SM SCT008 BKN015 OVC030 25/23 A2991 RMK AO2 T02470230
K66R 241515Z AUTO 13004KT 10SM BKN008 BKN015 OVC032 24/23 A2990 RMK AO2 T02420230
K66R 241455Z AUTO 13005KT 10SM BKN006 OVC034 24/23 A2990 RMK AO2 T02410229
K66R 241435Z AUTO 12004KT 10SM OVC004 23/23 A2989 RMK AO2 T02300225
K66R 241415Z AUTO 13003KT 10SM OVC004 23/22 A2988 RMK AO2 T02260222
K66R 241355Z AUTO 00000KT 10SM BKN006 OVC017 22/22 A2987 RMK AO2 LTG DSNT E T02210220
K66R 241335Z AUTO 00000KT 10SM SCT006 BKN019 OVC036 22/21 A2987 RMK AO2 T02150213
K66R 241315Z AUTO 00000KT 10SM BKN019 BKN026 OVC031 21/21 A2986 RMK AO2 T02110210
K66R 241255Z AUTO 00000KT 10SM BKN021 OVC027 21/20 A2985 RMK AO2 T02050204
K66R 241235Z AUTO 00000KT 10SM OVC021 20/20 A2985 RMK AO2 T02020201
K66R 241215Z AUTO 00000KT 10SM SCT003 OVC019 20/20 A2985 RMK AO2 T02000200
K66R 241155Z AUTO 00000KT 7SM BKN003 OVC017 20/20 A2985 RMK AO2 70027 T01990198 10200 20186
K66R 241135Z AUTO 00000KT 7SM BKN003 BKN017 OVC024 20/20 A2985 RMK AO2 T01980198
K66R 241115Z AUTO 00000KT 10SM SCT003 SCT008 OVC015 20/20 A2984 RMK AO2 T01980198